sensor_id;sensor_type;location;lat;lon;timestamp;temperature;humidity
10654;DHT22;5375;51.250;6.776;2023-02-28T00:00:31;18.40;42.20
10654;DHT22;5375;51.250;6.776;2023-02-28T00:02:57;18.40;42.10
10654;DHT22;5375;51.250;6.776;2023-02-28T00:05:24;18.40;42.10
10654;DHT22;5375;51.250;6.776;2023-02-28T00:07:50;18.40;42.20
10654;DHT22;5375;51.250;6.776;2023-02-28T00:10:19;18.40;42.10
10654;DHT22;5375;51.250;6.776;2023-02-28T00:12:47;18.60;42.20
10654;DHT22;5375;51.250;6.776;2023-02-28T00:15:13;18.40;42.20
10654;DHT22;5375;51.250;6.776;2023-02-28T00:17:38;18.40;42.10
10654;DHT22;5375;51.250;6.776;2023-02-28T00:20:05;18.40;42.10
10654;DHT22;5375;51.250;6.776;2023-02-28T00:22:38;18.40;42.10
10654;DHT22;5375;51.250;6.776;2023-02-28T00:25:04;18.40;42.10
10654;DHT22;5375;51.250;6.776;2023-02-28T00:27:32;18.40;42.10
10654;DHT22;5375;51.250;6.776;2023-02-28T00:29:58;18.40;42.10
10654;DHT22;5375;51.250;6.776;2023-02-28T00:32:24;18.40;42.30
10654;DHT22;5375;51.250;6.776;2023-02-28T00:34:49;18.40;42.10
10654;DHT22;5375;51.250;6.776;2023-02-28T00:37:15;18.30;42.10
10654;DHT22;5375;51.250;6.776;2023-02-28T00:39:41;18.30;42.00
10654;DHT22;5375;51.250;6.776;2023-02-28T00:42:07;18.30;42.00
10654;DHT22;5375;51.250;6.776;2023-02-28T00:44:33;18.30;42.70
10654;DHT22;5375;51.250;6.776;2023-02-28T00:46:59;18.30;42.30
10654;DHT22;5375;51.250;6.776;2023-02-28T00:49:26;18.20;42.00
10654;DHT22;5375;51.250;6.776;2023-02-28T00:51:53;18.30;42.30
10654;DHT22;5375;51.250;6.776;2023-02-28T00:54:19;18.40;42.10
10654;DHT22;5375;51.250;6.776;2023-02-28T00:56:45;18.30;42.00
10654;DHT22;5375;51.250;6.776;2023-02-28T00:59:15;18.30;42.00
10654;DHT22;5375;51.250;6.776;2023-02-28T01:01:42;18.30;42.00
10654;DHT22;5375;51.250;6.776;2023-02-28T01:04:08;18.30;42.00
10654;DHT22;5375;51.250;6.776;2023-02-28T01:06:33;18.30;42.00
10654;DHT22;5375;51.250;6.776;2023-02-28T01:08:59;18.30;42.00
10654;DHT22;5375;51.250;6.776;2023-02-28T01:11:26;18.30;42.00
10654;DHT22;5375;51.250;6.776;2023-02-28T01:13:51;18.30;42.10
10654;DHT22;5375;51.250;6.776;2023-02-28T01:16:17;18.30;42.20
10654;DHT22;5375;51.250;6.776;2023-02-28T01:18:43;18.30;42.00
10654;DHT22;5375;51.250;6.776;2023-02-28T01:21:12;18.30;42.00
10654;DHT22;5375;51.250;6.776;2023-02-28T01:23:39;18.30;42.00
10654;DHT22;5375;51.250;6.776;2023-02-28T01:26:07;18.30;42.00
10654;DHT22;5375;51.250;6.776;2023-02-28T01:28:33;18.20;42.00
10654;DHT22;5375;51.250;6.776;2023-02-28T01:30:59;18.20;42.00
10654;DHT22;5375;51.250;6.776;2023-02-28T01:33:26;18.30;42.20
10654;DHT22;5375;51.250;6.776;2023-02-28T01:36:09;18.20;42.10
10654;DHT22;5375;51.250;6.776;2023-02-28T01:38:36;18.20;42.00
10654;DHT22;5375;51.250;6.776;2023-02-28T01:41:02;18.30;42.00
10654;DHT22;5375;51.250;6.776;2023-02-28T01:43:35;18.20;41.90
10654;DHT22;5375;51.250;6.776;2023-02-28T01:46:15;18.20;41.90
10654;DHT22;5375;51.250;6.776;2023-02-28T01:48:49;18.20;41.90
10654;DHT22;5375;51.250;6.776;2023-02-28T01:51:20;18.20;41.90
10654;DHT22;5375;51.250;6.776;2023-02-28T01:53:54;18.20;41.90
10654;DHT22;5375;51.250;6.776;2023-02-28T01:56:25;18.40;42.00
10654;DHT22;5375;51.250;6.776;2023-02-28T01:58:53;18.20;41.90
10654;DHT22;5375;51.250;6.776;2023-02-28T02:01:21;18.20;42.60
10654;DHT22;5375;51.250;6.776;2023-02-28T02:03:50;18.20;41.90
10654;DHT22;5375;51.250;6.776;2023-02-28T02:06:36;18.40;42.00
10654;DHT22;5375;51.250;6.776;2023-02-28T02:09:03;18.20;42.00
10654;DHT22;5375;51.250;6.776;2023-02-28T02:11:29;18.20;42.00
10654;DHT22;5375;51.250;6.776;2023-02-28T02:17:43;18.20;42.40
10654;DHT22;5375;51.250;6.776;2023-02-28T02:20:14;18.20;42.10
10654;DHT22;5375;51.250;6.776;2023-02-28T02:34:29;18.20;42.40
10654;DHT22;5375;51.250;6.776;2023-02-28T02:42:55;17.60;41.90
10654;DHT22;5375;51.250;6.776;2023-02-28T02:45:29;18.20;42.10
10654;DHT22;5375;51.250;6.776;2023-02-28T02:48:02;18.20;42.20
10654;DHT22;5375;51.250;6.776;2023-02-28T02:50:45;18.20;42.10
10654;DHT22;5375;51.250;6.776;2023-02-28T02:53:12;18.20;42.00
10654;DHT22;5375;51.250;6.776;2023-02-28T02:55:42;18.20;42.00
10654;DHT22;5375;51.250;6.776;2023-02-28T02:58:13;18.20;41.90
10654;DHT22;5375;51.250;6.776;2023-02-28T03:00:44;18.40;42.00
10654;DHT22;5375;51.250;6.776;2023-02-28T03:03:12;18.20;41.90
10654;DHT22;5375;51.250;6.776;2023-02-28T03:05:43;18.10;41.80
10654;DHT22;5375;51.250;6.776;2023-02-28T03:08:10;18.10;41.80
10654;DHT22;5375;51.250;6.776;2023-02-28T03:10:40;18.20;42.40
10654;DHT22;5375;51.250;6.776;2023-02-28T03:18:44;18.10;41.60
10654;DHT22;5375;51.250;6.776;2023-02-28T03:21:27;18.10;41.70
10654;DHT22;5375;51.250;6.776;2023-02-28T03:26:46;18.10;41.60
10654;DHT22;5375;51.250;6.776;2023-02-28T03:31:50;18.10;41.60
10654;DHT22;5375;51.250;6.776;2023-02-28T03:34:32;18.10;41.60
10654;DHT22;5375;51.250;6.776;2023-02-28T03:37:07;18.10;41.60
10654;DHT22;5375;51.250;6.776;2023-02-28T03:39:43;18.10;41.70
10654;DHT22;5375;51.250;6.776;2023-02-28T03:42:18;18.10;41.80
10654;DHT22;5375;51.250;6.776;2023-02-28T03:44:54;18.10;42.00
10654;DHT22;5375;51.250;6.776;2023-02-28T03:47:22;18.10;42.20
10654;DHT22;5375;51.250;6.776;2023-02-28T03:49:55;18.10;42.00
10654;DHT22;5375;51.250;6.776;2023-02-28T03:52:27;18.10;41.90
10654;DHT22;5375;51.250;6.776;2023-02-28T03:54:56;18.10;41.90
10654;DHT22;5375;51.250;6.776;2023-02-28T03:57:40;18.10;41.90
10654;DHT22;5375;51.250;6.776;2023-02-28T04:00:12;18.00;41.70
10654;DHT22;5375;51.250;6.776;2023-02-28T04:02:39;18.00;42.00
10654;DHT22;5375;51.250;6.776;2023-02-28T04:05:06;18.10;41.70
10654;DHT22;5375;51.250;6.776;2023-02-28T04:07:33;18.00;41.60
10654;DHT22;5375;51.250;6.776;2023-02-28T04:09:59;18.00;41.80
10654;DHT22;5375;51.250;6.776;2023-02-28T04:12:25;18.00;41.60
10654;DHT22;5375;51.250;6.776;2023-02-28T04:14:51;18.10;42.10
10654;DHT22;5375;51.250;6.776;2023-02-28T04:17:17;18.10;41.70
10654;DHT22;5375;51.250;6.776;2023-02-28T04:19:42;18.00;41.50
10654;DHT22;5375;51.250;6.776;2023-02-28T04:22:09;18.00;41.50
10654;DHT22;5375;51.250;6.776;2023-02-28T04:24:35;18.00;41.60
10654;DHT22;5375;51.250;6.776;2023-02-28T04:27:01;18.00;41.40
10654;DHT22;5375;51.250;6.776;2023-02-28T04:29:31;18.00;41.80
10654;DHT22;5375;51.250;6.776;2023-02-28T04:31:59;18.00;41.40
10654;DHT22;5375;51.250;6.776;2023-02-28T04:34:30;18.00;41.50
10654;DHT22;5375;51.250;6.776;2023-02-28T04:36:57;18.00;41.50
10654;DHT22;5375;51.250;6.776;2023-02-28T04:39:24;18.00;41.50
10654;DHT22;5375;51.250;6.776;2023-02-28T04:41:49;18.00;41.60
10654;DHT22;5375;51.250;6.776;2023-02-28T04:44:16;18.00;41.50
10654;DHT22;5375;51.250;6.776;2023-02-28T04:46:42;18.00;41.60
10654;DHT22;5375;51.250;6.776;2023-02-28T04:49:10;18.00;41.60
10654;DHT22;5375;51.250;6.776;2023-02-28T04:51:36;18.00;41.60
10654;DHT22;5375;51.250;6.776;2023-02-28T04:54:02;18.00;41.60
10654;DHT22;5375;51.250;6.776;2023-02-28T04:56:28;18.00;41.60
10654;DHT22;5375;51.250;6.776;2023-02-28T04:58:54;18.00;41.80
10654;DHT22;5375;51.250;6.776;2023-02-28T05:01:31;18.00;41.70
10654;DHT22;5375;51.250;6.776;2023-02-28T05:03:59;18.00;41.70
10654;DHT22;5375;51.250;6.776;2023-02-28T05:06:27;18.00;41.90
10654;DHT22;5375;51.250;6.776;2023-02-28T05:08:53;18.00;42.00
10654;DHT22;5375;51.250;6.776;2023-02-28T05:13:51;18.00;42.20
10654;DHT22;5375;51.250;6.776;2023-02-28T05:16:17;19.00;42.60
10654;DHT22;5375;51.250;6.776;2023-02-28T05:18:43;18.00;42.40
10654;DHT22;5375;51.250;6.776;2023-02-28T05:21:26;18.10;42.30
10654;DHT22;5375;51.250;6.776;2023-02-28T05:23:53;18.10;42.40
10654;DHT22;5375;51.250;6.776;2023-02-28T05:26:19;18.10;42.60
10654;DHT22;5375;51.250;6.776;2023-02-28T05:28:45;18.10;42.60
10654;DHT22;5375;51.250;6.776;2023-02-28T05:31:11;18.10;42.70
10654;DHT22;5375;51.250;6.776;2023-02-28T05:33:37;18.10;42.70
10654;DHT22;5375;51.250;6.776;2023-02-28T05:36:03;18.20;42.60
10654;DHT22;5375;51.250;6.776;2023-02-28T05:38:29;18.20;42.70
10654;DHT22;5375;51.250;6.776;2023-02-28T05:40:55;18.20;42.70
10654;DHT22;5375;51.250;6.776;2023-02-28T05:43:21;18.20;42.60
10654;DHT22;5375;51.250;6.776;2023-02-28T05:45:47;18.30;42.70
10654;DHT22;5375;51.250;6.776;2023-02-28T05:48:13;18.30;42.70
10654;DHT22;5375;51.250;6.776;2023-02-28T05:50:39;18.70;42.90
10654;DHT22;5375;51.250;6.776;2023-02-28T05:53:05;18.20;42.60
10654;DHT22;5375;51.250;6.776;2023-02-28T05:55:30;18.30;42.60
10654;DHT22;5375;51.250;6.776;2023-02-28T05:57:56;18.30;42.60
10654;DHT22;5375;51.250;6.776;2023-02-28T06:00:22;18.30;42.50
10654;DHT22;5375;51.250;6.776;2023-02-28T06:02:48;18.30;42.60
10654;DHT22;5375;51.250;6.776;2023-02-28T06:05:17;18.30;42.50
10654;DHT22;5375;51.250;6.776;2023-02-28T06:07:43;18.30;42.60
10654;DHT22;5375;51.250;6.776;2023-02-28T06:10:13;18.40;42.30
10654;DHT22;5375;51.250;6.776;2023-02-28T06:12:39;18.40;42.40
10654;DHT22;5375;51.250;6.776;2023-02-28T06:15:09;18.40;42.40
10654;DHT22;5375;51.250;6.776;2023-02-28T06:17:36;18.40;42.40
10654;DHT22;5375;51.250;6.776;2023-02-28T06:20:02;18.40;42.30
10654;DHT22;5375;51.250;6.776;2023-02-28T06:22:28;18.40;42.90
10654;DHT22;5375;51.250;6.776;2023-02-28T06:24:54;18.40;42.20
10654;DHT22;5375;51.250;6.776;2023-02-28T06:27:20;18.40;42.30
10654;DHT22;5375;51.250;6.776;2023-02-28T06:29:46;18.40;42.10
10654;DHT22;5375;51.250;6.776;2023-02-28T06:32:11;18.40;42.30
10654;DHT22;5375;51.250;6.776;2023-02-28T06:34:37;18.40;42.30
10654;DHT22;5375;51.250;6.776;2023-02-28T06:37:03;18.60;42.10
10654;DHT22;5375;51.250;6.776;2023-02-28T06:39:30;18.80;41.90
10654;DHT22;5375;51.250;6.776;2023-02-28T06:41:56;18.60;42.10
10654;DHT22;5375;51.250;6.776;2023-02-28T06:44:23;18.50;42.00
10654;DHT22;5375;51.250;6.776;2023-02-28T06:46:49;18.50;42.10
10654;DHT22;5375;51.250;6.776;2023-02-28T06:49:16;18.60;42.30
10654;DHT22;5375;51.250;6.776;2023-02-28T06:51:43;18.50;42.20
10654;DHT22;5375;51.250;6.776;2023-02-28T06:54:12;18.50;42.20
10654;DHT22;5375;51.250;6.776;2023-02-28T06:56:38;18.50;42.10
10654;DHT22;5375;51.250;6.776;2023-02-28T06:59:04;18.50;42.20
10654;DHT22;5375;51.250;6.776;2023-02-28T07:01:30;18.50;42.10
10654;DHT22;5375;51.250;6.776;2023-02-28T07:03:58;18.50;41.90
10654;DHT22;5375;51.250;6.776;2023-02-28T07:06:25;18.50;42.10
10654;DHT22;5375;51.250;6.776;2023-02-28T07:08:54;18.50;41.90
10654;DHT22;5375;51.250;6.776;2023-02-28T07:11:21;18.50;41.90
10654;DHT22;5375;51.250;6.776;2023-02-28T07:13:48;18.50;42.00
10654;DHT22;5375;51.250;6.776;2023-02-28T07:16:14;18.50;41.80
10654;DHT22;5375;51.250;6.776;2023-02-28T07:18:40;18.50;41.80
10654;DHT22;5375;51.250;6.776;2023-02-28T07:21:08;18.50;41.90
10654;DHT22;5375;51.250;6.776;2023-02-28T07:23:34;18.50;41.70
10654;DHT22;5375;51.250;6.776;2023-02-28T07:26:00;18.50;41.70
10654;DHT22;5375;51.250;6.776;2023-02-28T07:28:25;18.60;41.80
10654;DHT22;5375;51.250;6.776;2023-02-28T07:30:51;18.50;41.70
10654;DHT22;5375;51.250;6.776;2023-02-28T07:33:17;18.50;41.60
10654;DHT22;5375;51.250;6.776;2023-02-28T07:35:43;18.40;41.70
10654;DHT22;5375;51.250;6.776;2023-02-28T07:38:09;18.50;41.80
10654;DHT22;5375;51.250;6.776;2023-02-28T07:40:35;18.50;41.80
10654;DHT22;5375;51.250;6.776;2023-02-28T07:43:01;18.50;41.70
10654;DHT22;5375;51.250;6.776;2023-02-28T07:45:27;18.50;41.70
10654;DHT22;5375;51.250;6.776;2023-02-28T07:47:59;18.50;41.70
10654;DHT22;5375;51.250;6.776;2023-02-28T07:50:25;18.50;41.60
10654;DHT22;5375;51.250;6.776;2023-02-28T07:52:52;18.50;41.70
10654;DHT22;5375;51.250;6.776;2023-02-28T07:55:18;18.50;41.70
10654;DHT22;5375;51.250;6.776;2023-02-28T07:57:44;18.50;41.80
10654;DHT22;5375;51.250;6.776;2023-02-28T08:00:11;18.50;41.70
10654;DHT22;5375;51.250;6.776;2023-02-28T08:02:38;18.50;41.70
10654;DHT22;5375;51.250;6.776;2023-02-28T08:05:04;18.50;41.70
10654;DHT22;5375;51.250;6.776;2023-02-28T08:07:30;18.50;41.60
10654;DHT22;5375;51.250;6.776;2023-02-28T08:09:55;18.50;41.70
10654;DHT22;5375;51.250;6.776;2023-02-28T08:12:21;18.50;41.70
10654;DHT22;5375;51.250;6.776;2023-02-28T08:14:46;18.50;41.70
10654;DHT22;5375;51.250;6.776;2023-02-28T08:17:12;18.50;41.60
10654;DHT22;5375;51.250;6.776;2023-02-28T08:19:38;18.50;41.90
10654;DHT22;5375;51.250;6.776;2023-02-28T08:22:05;18.50;41.70
10654;DHT22;5375;51.250;6.776;2023-02-28T08:24:30;18.50;41.60
10654;DHT22;5375;51.250;6.776;2023-02-28T08:26:56;18.50;41.60
10654;DHT22;5375;51.250;6.776;2023-02-28T08:29:22;18.50;41.60
10654;DHT22;5375;51.250;6.776;2023-02-28T08:31:47;18.50;41.60
10654;DHT22;5375;51.250;6.776;2023-02-28T08:34:15;18.50;41.70
10654;DHT22;5375;51.250;6.776;2023-02-28T08:36:41;18.50;41.70
10654;DHT22;5375;51.250;6.776;2023-02-28T08:39:08;18.50;41.70
10654;DHT22;5375;51.250;6.776;2023-02-28T08:41:34;18.50;41.70
10654;DHT22;5375;51.250;6.776;2023-02-28T08:43:59;18.50;41.60
10654;DHT22;5375;51.250;6.776;2023-02-28T08:46:25;18.60;41.70
10654;DHT22;5375;51.250;6.776;2023-02-28T08:48:53;18.50;41.60
10654;DHT22;5375;51.250;6.776;2023-02-28T08:51:19;18.50;41.60
10654;DHT22;5375;51.250;6.776;2023-02-28T08:53:52;18.60;41.70
10654;DHT22;5375;51.250;6.776;2023-02-28T08:56:18;18.60;41.60
10654;DHT22;5375;51.250;6.776;2023-02-28T08:58:44;18.50;41.60
10654;DHT22;5375;51.250;6.776;2023-02-28T09:01:14;18.60;41.70
10654;DHT22;5375;51.250;6.776;2023-02-28T09:03:40;18.60;41.60
10654;DHT22;5375;51.250;6.776;2023-02-28T09:06:07;18.60;41.70
10654;DHT22;5375;51.250;6.776;2023-02-28T09:08:34;18.60;41.60
10654;DHT22;5375;51.250;6.776;2023-02-28T09:11:00;18.60;41.60
10654;DHT22;5375;51.250;6.776;2023-02-28T09:13:26;18.60;41.60
10654;DHT22;5375;51.250;6.776;2023-02-28T09:15:52;18.60;41.60
10654;DHT22;5375;51.250;6.776;2023-02-28T09:18:18;18.60;41.60
10654;DHT22;5375;51.250;6.776;2023-02-28T09:20:44;18.60;41.60
10654;DHT22;5375;51.250;6.776;2023-02-28T09:23:11;18.60;41.60
10654;DHT22;5375;51.250;6.776;2023-02-28T09:25:40;18.60;41.60
10654;DHT22;5375;51.250;6.776;2023-02-28T09:28:10;18.60;41.60
10654;DHT22;5375;51.250;6.776;2023-02-28T09:30:36;18.60;41.60
10654;DHT22;5375;51.250;6.776;2023-02-28T09:33:02;18.60;41.70
10654;DHT22;5375;51.250;6.776;2023-02-28T09:35:28;18.60;41.60
10654;DHT22;5375;51.250;6.776;2023-02-28T09:37:53;18.60;41.70
10654;DHT22;5375;51.250;6.776;2023-02-28T09:40:22;18.60;41.60
10654;DHT22;5375;51.250;6.776;2023-02-28T09:42:51;18.60;41.70
10654;DHT22;5375;51.250;6.776;2023-02-28T09:47:50;18.60;41.60
10654;DHT22;5375;51.250;6.776;2023-02-28T09:52:55;18.60;41.70
10654;DHT22;5375;51.250;6.776;2023-02-28T09:55:32;18.60;41.60
10654;DHT22;5375;51.250;6.776;2023-02-28T09:58:00;18.60;41.60
10654;DHT22;5375;51.250;6.776;2023-02-28T10:00:33;18.60;41.70
10654;DHT22;5375;51.250;6.776;2023-02-28T10:03:31;18.60;41.60
10654;DHT22;5375;51.250;6.776;2023-02-28T10:06:12;18.60;41.60
10654;DHT22;5375;51.250;6.776;2023-02-28T10:11:13;18.60;41.70
10654;DHT22;5375;51.250;6.776;2023-02-28T10:13:52;18.60;41.70
10654;DHT22;5375;51.250;6.776;2023-02-28T10:16:29;18.60;41.70
10654;DHT22;5375;51.250;6.776;2023-02-28T10:19:03;18.60;41.70
10654;DHT22;5375;51.250;6.776;2023-02-28T10:21:38;18.60;41.70
10654;DHT22;5375;51.250;6.776;2023-02-28T10:26:43;18.60;41.70
10654;DHT22;5375;51.250;6.776;2023-02-28T10:29:10;18.60;41.70
10654;DHT22;5375;51.250;6.776;2023-02-28T10:31:36;18.60;41.70
10654;DHT22;5375;51.250;6.776;2023-02-28T10:34:03;18.60;41.80
10654;DHT22;5375;51.250;6.776;2023-02-28T10:36:29;18.60;41.70
10654;DHT22;5375;51.250;6.776;2023-02-28T10:38:55;18.60;41.90
10654;DHT22;5375;51.250;6.776;2023-02-28T10:41:31;18.60;41.90
10654;DHT22;5375;51.250;6.776;2023-02-28T10:44:20;18.60;41.70
10654;DHT22;5375;51.250;6.776;2023-02-28T10:46:45;18.70;41.80
10654;DHT22;5375;51.250;6.776;2023-02-28T10:49:19;18.60;41.70
10654;DHT22;5375;51.250;6.776;2023-02-28T10:51:46;18.60;41.70
10654;DHT22;5375;51.250;6.776;2023-02-28T10:54:31;18.60;41.70
10654;DHT22;5375;51.250;6.776;2023-02-28T10:57:25;18.60;41.70
10654;DHT22;5375;51.250;6.776;2023-02-28T10:59:52;18.60;41.80
10654;DHT22;5375;51.250;6.776;2023-02-28T11:02:35;18.60;41.80
10654;DHT22;5375;51.250;6.776;2023-02-28T11:05:10;18.60;41.80
10654;DHT22;5375;51.250;6.776;2023-02-28T11:07:52;18.60;41.80
10654;DHT22;5375;51.250;6.776;2023-02-28T11:10:20;18.60;41.90
10654;DHT22;5375;51.250;6.776;2023-02-28T11:12:48;18.60;42.10
10654;DHT22;5375;51.250;6.776;2023-02-28T11:18:00;18.60;42.00
10654;DHT22;5375;51.250;6.776;2023-02-28T11:20:29;18.70;41.90
10654;DHT22;5375;51.250;6.776;2023-02-28T11:22:57;18.60;41.80
10654;DHT22;5375;51.250;6.776;2023-02-28T11:25:36;18.60;41.70
10654;DHT22;5375;51.250;6.776;2023-02-28T11:28:32;18.60;42.00
10654;DHT22;5375;51.250;6.776;2023-02-28T11:31:03;18.60;42.00
10654;DHT22;5375;51.250;6.776;2023-02-28T11:33:31;18.60;42.00
10654;DHT22;5375;51.250;6.776;2023-02-28T11:36:03;18.60;42.00
10654;DHT22;5375;51.250;6.776;2023-02-28T11:38:32;18.60;42.00
10654;DHT22;5375;51.250;6.776;2023-02-28T11:43:58;18.60;42.00
10654;DHT22;5375;51.250;6.776;2023-02-28T11:46:52;18.60;42.00
10654;DHT22;5375;51.250;6.776;2023-02-28T11:55:16;18.60;42.10
10654;DHT22;5375;51.250;6.776;2023-02-28T12:03:43;18.60;42.20
10654;DHT22;5375;51.250;6.776;2023-02-28T12:06:23;18.60;42.20
10654;DHT22;5375;51.250;6.776;2023-02-28T12:11:56;18.60;42.20
10654;DHT22;5375;51.250;6.776;2023-02-28T12:20:14;18.60;42.30
10654;DHT22;5375;51.250;6.776;2023-02-28T12:25:36;18.60;42.30
10654;DHT22;5375;51.250;6.776;2023-02-28T12:28:11;18.60;42.40
10654;DHT22;5375;51.250;6.776;2023-02-28T12:30:59;18.60;42.50
10654;DHT22;5375;51.250;6.776;2023-02-28T12:33:32;18.60;42.40
10654;DHT22;5375;51.250;6.776;2023-02-28T12:36:03;18.60;42.40
10654;DHT22;5375;51.250;6.776;2023-02-28T12:39:01;18.60;42.50
10654;DHT22;5375;51.250;6.776;2023-02-28T12:42:03;18.60;42.40
10654;DHT22;5375;51.250;6.776;2023-02-28T12:44:35;18.60;42.50
10654;DHT22;5375;51.250;6.776;2023-02-28T12:47:05;18.80;42.60
10654;DHT22;5375;51.250;6.776;2023-02-28T12:49:39;18.60;42.60
10654;DHT22;5375;51.250;6.776;2023-02-28T12:52:06;18.60;42.70
10654;DHT22;5375;51.250;6.776;2023-02-28T12:54:43;18.60;43.00
10654;DHT22;5375;51.250;6.776;2023-02-28T12:57:17;18.60;42.80
10654;DHT22;5375;51.250;6.776;2023-02-28T13:00:03;18.70;42.80
10654;DHT22;5375;51.250;6.776;2023-02-28T13:10:50;18.60;42.60
10654;DHT22;5375;51.250;6.776;2023-02-28T13:13:21;18.60;42.70
10654;DHT22;5375;51.250;6.776;2023-02-28T13:16:03;18.60;42.60
10654;DHT22;5375;51.250;6.776;2023-02-28T13:18:33;18.60;42.60
10654;DHT22;5375;51.250;6.776;2023-02-28T13:21:03;18.60;42.60
10654;DHT22;5375;51.250;6.776;2023-02-28T13:29:27;18.70;42.60
10654;DHT22;5375;51.250;6.776;2023-02-28T13:34:32;18.70;42.70
10654;DHT22;5375;51.250;6.776;2023-02-28T13:39:54;18.70;42.60
10654;DHT22;5375;51.250;6.776;2023-02-28T13:42:47;18.70;42.70
10654;DHT22;5375;51.250;6.776;2023-02-28T13:45:30;18.70;42.60
10654;DHT22;5375;51.250;6.776;2023-02-28T13:48:03;18.70;42.70
10654;DHT22;5375;51.250;6.776;2023-02-28T13:53:20;18.70;42.60
10654;DHT22;5375;51.250;6.776;2023-02-28T13:56:27;18.70;42.60
10654;DHT22;5375;51.250;6.776;2023-02-28T13:59:15;18.70;42.70
10654;DHT22;5375;51.250;6.776;2023-02-28T14:02:17;18.70;42.60
10654;DHT22;5375;51.250;6.776;2023-02-28T14:05:04;18.70;42.60
10654;DHT22;5375;51.250;6.776;2023-02-28T14:07:37;18.70;42.60
10654;DHT22;5375;51.250;6.776;2023-02-28T14:10:06;18.70;42.60
10654;DHT22;5375;51.250;6.776;2023-02-28T14:15:43;18.70;42.60
10654;DHT22;5375;51.250;6.776;2023-02-28T14:18:30;18.70;42.70
10654;DHT22;5375;51.250;6.776;2023-02-28T14:21:14;18.90;42.70
10654;DHT22;5375;51.250;6.776;2023-02-28T14:23:57;18.70;42.60
10654;DHT22;5375;51.250;6.776;2023-02-28T14:26:50;18.70;42.60
10654;DHT22;5375;51.250;6.776;2023-02-28T14:33:08;18.70;42.70
10654;DHT22;5375;51.250;6.776;2023-02-28T14:35:55;18.70;42.80
10654;DHT22;5375;51.250;6.776;2023-02-28T14:38:28;18.60;42.80
10654;DHT22;5375;51.250;6.776;2023-02-28T14:40:57;18.70;43.00
10654;DHT22;5375;51.250;6.776;2023-02-28T14:43:28;18.70;43.20
10654;DHT22;5375;51.250;6.776;2023-02-28T14:45:59;18.70;43.30
10654;DHT22;5375;51.250;6.776;2023-02-28T14:48:26;18.70;43.30
10654;DHT22;5375;51.250;6.776;2023-02-28T14:50:59;18.70;43.40
10654;DHT22;5375;51.250;6.776;2023-02-28T14:53:30;18.70;43.30
10654;DHT22;5375;51.250;6.776;2023-02-28T14:56:00;18.70;43.30
10654;DHT22;5375;51.250;6.776;2023-02-28T14:58:28;18.70;43.30
10654;DHT22;5375;51.250;6.776;2023-02-28T15:00:57;18.70;43.30
10654;DHT22;5375;51.250;6.776;2023-02-28T15:03:24;18.70;43.30
10654;DHT22;5375;51.250;6.776;2023-02-28T15:06:04;18.70;43.30
10654;DHT22;5375;51.250;6.776;2023-02-28T15:08:31;18.70;43.90
10654;DHT22;5375;51.250;6.776;2023-02-28T15:11:16;18.70;43.20
10654;DHT22;5375;51.250;6.776;2023-02-28T15:13:47;18.70;43.20
10654;DHT22;5375;51.250;6.776;2023-02-28T15:16:22;18.70;43.30
10654;DHT22;5375;51.250;6.776;2023-02-28T15:18:56;18.70;43.30
10654;DHT22;5375;51.250;6.776;2023-02-28T15:21:28;18.70;43.30
10654;DHT22;5375;51.250;6.776;2023-02-28T15:24:00;18.70;43.20
10654;DHT22;5375;51.250;6.776;2023-02-28T15:26:34;18.70;43.20
10654;DHT22;5375;51.250;6.776;2023-02-28T15:29:10;18.70;43.20
10654;DHT22;5375;51.250;6.776;2023-02-28T15:31:48;18.70;43.20
10654;DHT22;5375;51.250;6.776;2023-02-28T15:34:22;18.70;43.10
10654;DHT22;5375;51.250;6.776;2023-02-28T15:36:48;18.70;43.10
10654;DHT22;5375;51.250;6.776;2023-02-28T15:39:41;18.70;43.20
10654;DHT22;5375;51.250;6.776;2023-02-28T15:42:19;18.70;43.00
10654;DHT22;5375;51.250;6.776;2023-02-28T15:44:45;18.70;43.00
10654;DHT22;5375;51.250;6.776;2023-02-28T15:47:22;18.70;43.30
10654;DHT22;5375;51.250;6.776;2023-02-28T15:52:28;18.70;43.00
10654;DHT22;5375;51.250;6.776;2023-02-28T15:54:57;18.70;43.00
10654;DHT22;5375;51.250;6.776;2023-02-28T15:57:28;18.70;42.90
10654;DHT22;5375;51.250;6.776;2023-02-28T15:59:57;18.70;42.90
10654;DHT22;5375;51.250;6.776;2023-02-28T16:02:35;18.70;42.90
10654;DHT22;5375;51.250;6.776;2023-02-28T16:07:54;18.70;42.80
10654;DHT22;5375;51.250;6.776;2023-02-28T16:10:21;18.70;42.80
10654;DHT22;5375;51.250;6.776;2023-02-28T16:12:50;18.60;43.00
10654;DHT22;5375;51.250;6.776;2023-02-28T16:15:26;18.70;42.80
10654;DHT22;5375;51.250;6.776;2023-02-28T16:17:53;18.70;42.70
10654;DHT22;5375;51.250;6.776;2023-02-28T16:20:25;18.70;42.90
10654;DHT22;5375;51.250;6.776;2023-02-28T16:22:51;18.70;42.70
10654;DHT22;5375;51.250;6.776;2023-02-28T16:25:19;18.70;42.70
10654;DHT22;5375;51.250;6.776;2023-02-28T16:27:50;18.70;42.70
10654;DHT22;5375;51.250;6.776;2023-02-28T16:30:24;18.70;42.60
10654;DHT22;5375;51.250;6.776;2023-02-28T16:32:51;18.60;42.60
10654;DHT22;5375;51.250;6.776;2023-02-28T16:35:17;18.70;42.60
10654;DHT22;5375;51.250;6.776;2023-02-28T16:37:43;18.70;42.60
10654;DHT22;5375;51.250;6.776;2023-02-28T16:40:18;18.70;42.60
10654;DHT22;5375;51.250;6.776;2023-02-28T16:42:47;18.70;42.50
10654;DHT22;5375;51.250;6.776;2023-02-28T16:45:18;18.70;42.50
10654;DHT22;5375;51.250;6.776;2023-02-28T16:47:46;18.70;42.50
10654;DHT22;5375;51.250;6.776;2023-02-28T16:50:20;18.70;42.60
10654;DHT22;5375;51.250;6.776;2023-02-28T16:52:46;18.70;42.50
10654;DHT22;5375;51.250;6.776;2023-02-28T16:55:13;18.60;42.50
10654;DHT22;5375;51.250;6.776;2023-02-28T16:57:39;18.60;42.50
10654;DHT22;5375;51.250;6.776;2023-02-28T17:00:08;18.70;42.50
10654;DHT22;5375;51.250;6.776;2023-02-28T17:02:36;18.70;42.50
10654;DHT22;5375;51.250;6.776;2023-02-28T17:05:02;18.60;42.50
10654;DHT22;5375;51.250;6.776;2023-02-28T17:07:28;18.60;42.70
10654;DHT22;5375;51.250;6.776;2023-02-28T17:09:53;18.70;42.50
10654;DHT22;5375;51.250;6.776;2023-02-28T17:12:19;18.60;42.40
10654;DHT22;5375;51.250;6.776;2023-02-28T17:14:45;18.70;42.50
10654;DHT22;5375;51.250;6.776;2023-02-28T17:17:21;18.70;42.70
10654;DHT22;5375;51.250;6.776;2023-02-28T17:19:47;18.60;42.80
10654;DHT22;5375;51.250;6.776;2023-02-28T17:22:16;18.60;43.30
10654;DHT22;5375;51.250;6.776;2023-02-28T17:24:42;18.60;42.60
10654;DHT22;5375;51.250;6.776;2023-02-28T17:27:11;18.60;42.50
10654;DHT22;5375;51.250;6.776;2023-02-28T17:29:38;18.60;42.40
10654;DHT22;5375;51.250;6.776;2023-02-28T17:32:04;18.60;42.30
10654;DHT22;5375;51.250;6.776;2023-02-28T17:34:29;18.60;42.20
10654;DHT22;5375;51.250;6.776;2023-02-28T17:36:55;18.60;42.20
10654;DHT22;5375;51.250;6.776;2023-02-28T17:39:21;18.70;42.20
10654;DHT22;5375;51.250;6.776;2023-02-28T17:41:54;18.60;42.10
10654;DHT22;5375;51.250;6.776;2023-02-28T17:44:20;18.70;42.10
10654;DHT22;5375;51.250;6.776;2023-02-28T17:46:47;18.10;41.80
10654;DHT22;5375;51.250;6.776;2023-02-28T17:49:13;18.70;42.10
10654;DHT22;5375;51.250;6.776;2023-02-28T17:51:38;18.70;42.00